Station Historical Data
Daily Summary for November 12, 2017 Units:  English    Metric   Both
« Previous Day
Next Day »
Daily Weekly Monthly Yearly Custom
  High: Low: Average:
Temperature: 47.3 °F 43.9 °F 46 °F
Dew Point: 45.1 °F 34.8 °F 40.1 °F
Humidity: 92% 66% 80%
Wind Speed: 5.8mph 0.0mph 0.7mph
Wind Gust: 5.8mph - -
Wind- - West
Pressure: 30.38 in 30.29 in -
Precipitation: 0.12 in    
Historical Graphs
 
 
Tabular Data for November 12, 2017
Time Temperature Dew Point Pressure Wind Wind Speed Wind Gust Humidity Rainfall Rate (Hourly) Conditions
00:00 45.7 °F 35.7 °F 30.37 in West 1.2 mph 1.2 mph 68% 0.00 in OVC
00:05 45.7 °F 35.4 °F 30.38 in West 5.8 mph 5.8 mph 67% 0.00 in OVC
00:10 45.7 °F 35.7 °F 30.38 in WNW 1.2 mph 1.2 mph 68% 0.00 in OVC
00:15 45.7 °F 35.7 °F 30.38 in Calm   0.1 mph 68% 0.00 in OVC
00:21 45.7 °F 35.4 °F 30.38 in WNW 2.3 mph 2.3 mph 67% 0.00 in OVC
00:26 45.7 °F 35.4 °F 30.38 in West 1.2 mph 1.2 mph 67% 0.00 in OVC
00:31 45.7 °F 35.7 °F 30.38 in WNW 1.2 mph   68% 0.00 in OVC
00:36 45.7 °F 35.7 °F 30.38 in West 1.2 mph 1.2 mph 68% 0.00 in OVC
00:41 45.6 °F 35.3 °F 30.38 in WNW 3.5 mph 3.5 mph 67% 0.00 in OVC
00:46 45.6 °F 35.6 °F 30.38 in West 1.2 mph 1.2 mph 68% 0.00 in OVC
00:51 45.5 °F 35.2 °F 30.38 in West 3.5 mph 3.5 mph 67% 0.00 in OVC
00:56 45.5 °F 35.2 °F 30.38 in West 3.5 mph 3.5 mph 67% 0.00 in OVC
01:01 45.5 °F 35.2 °F 30.35 in West 4.6 mph 4.6 mph 67% 0.00 in OVC
01:06 45.5 °F 35.2 °F 30.35 in West 3.5 mph 3.5 mph 67% 0.00 in OVC
01:11 45.6 °F 35.6 °F 30.35 in WNW 1.2 mph 1.2 mph 68% 0.00 in OVC
01:16 45.5 °F 35.2 °F 30.35 in NW 3.5 mph 3.5 mph 67% 0.00 in OVC
01:21 45.6 °F 35.6 °F 30.35 in WNW 4.6 mph 4.6 mph 68% 0.00 in OVC
01:26 45.6 °F 35.6 °F 30.35 in Calm     68% 0.00 in OVC
01:31 45.6 °F 35.3 °F 30.35 in West 2.3 mph 2.3 mph 67% 0.00 in OVC
01:36 45.6 °F 35.3 °F 30.35 in West 4.6 mph 4.6 mph 67% 0.00 in OVC
01:41 45.6 °F 35.3 °F 30.35 in WNW 1.2 mph   67% 0.00 in OVC
01:46 45.6 °F 35.3 °F 30.35 in West 3.5 mph 3.5 mph 67% 0.00 in OVC
01:51 45.6 °F 34.9 °F 30.35 in SSW 4.6 mph 4.6 mph 66% 0.00 in OVC
01:56 45.6 °F 34.9 °F 30.35 in SSW 5.1 mph 5.1 mph 66% 0.00 in OVC
02:01 45.6 °F 35.3 °F 30.33 in WSW 3.5 mph 3.5 mph 67% 0.00 in OVC
02:06 45.6 °F 35.3 °F 30.33 in West 2.3 mph 2.3 mph 67% 0.00 in OVC
02:11 45.6 °F 35.3 °F 30.33 in West 1.2 mph 1.2 mph 67% 0.00 in OVC
02:16 45.6 °F 35.3 °F 30.33 in West 1.2 mph 1.2 mph 67% 0.00 in OVC
02:21 45.6 °F 35.3 °F 30.33 in Calm     67% 0.00 in OVC
02:26 45.6 °F 35.6 °F 30.33 in West 1.2 mph 1.2 mph 68% 0.00 in OVC
02:31 45.6 °F 35.3 °F 30.33 in Calm     67% 0.00 in OVC
02:37 45.6 °F 35.3 °F 30.33 in WNW 1.2 mph   67% 0.00 in OVC
02:42 45.6 °F 34.9 °F 30.33 in Calm     66% 0.00 in OVC
02:47 45.6 °F 35.3 °F 30.33 in WNW 1.2 mph   67% 0.00 in OVC
02:52 45.6 °F 35.6 °F 30.33 in NW 1.2 mph 1.2 mph 68% 0.00 in OVC
02:57 45.6 °F 34.9 °F 30.33 in WNW 1.2 mph 1.2 mph 66% 0.00 in OVC
03:02 45.6 °F 34.9 °F 30.34 in WSW 3.5 mph 3.5 mph 66% 0.00 in OVC
03:07 45.6 °F 35.3 °F 30.34 in WNW 1.2 mph 1.2 mph 67% 0.00 in OVC
03:12 45.6 °F 35.3 °F 30.34 in West 4.6 mph 4.6 mph 67% 0.00 in OVC
03:17 45.6 °F 35.3 °F 30.34 in WSW 2.3 mph 2.3 mph 67% 0.00 in OVC
03:22 45.6 °F 35.3 °F 30.34 in West 1.2 mph 1.2 mph 67% 0.00 in OVC
03:27 45.6 °F 35.3 °F 30.34 in WNW 3.5 mph 3.5 mph 67% 0.00 in OVC
03:32 45.6 °F 35.3 °F 30.34 in WNW 1.0 mph   67% 0.00 in OVC
03:37 45.5 °F 35.5 °F 30.34 in Calm   0.1 mph 68% 0.00 in OVC
03:42 45.5 °F 35.5 °F 30.34 in WNW 1.2 mph 1.2 mph 68% 0.00 in OVC
03:47 45.5 °F 35.5 °F 30.34 in WNW 2.3 mph 2.3 mph 68% 0.00 in OVC
03:52 45.5 °F 35.5 °F 30.34 in West 4.6 mph 4.6 mph 68% 0.00 in OVC
03:57 45.5 °F 35.5 °F 30.34 in West 2.3 mph 2.3 mph 68% 0.00 in OVC
04:02 45.5 °F 35.9 °F 30.34 in Calm     69% 0.00 in OVC
04:07 45.5 °F 35.9 °F 30.34 in West 1.2 mph   69% 0.00 in OVC
04:12 45.4 °F 35.5 °F 30.34 in West 2.3 mph 2.3 mph 68% 0.00 in OVC
04:18 45.4 °F 35.8 °F 30.34 in West 1.2 mph   69% 0.00 in OVC
04:23 45.4 °F 35.8 °F 30.34 in West 1.2 mph 1.2 mph 69% 0.00 in OVC
04:28 45.4 °F 35.5 °F 30.34 in West 4.6 mph 4.6 mph 68% 0.00 in OVC
04:29 45.4 °F 35.5 °F 30.34 in WNW 2.3 mph 2.3 mph 68% 0.00 in OVC
04:34 45.3 °F 35.7 °F 30.34 in West 1.2 mph   69% 0.00 in OVC
04:39 45.3 °F 35.7 °F 30.34 in West 1.2 mph 1.2 mph 69% 0.00 in OVC
04:44 45.3 °F 35.7 °F 30.34 in Calm     69% 0.00 in OVC
04:49 45.3 °F 35.7 °F 30.34 in West 1.2 mph   69% 0.00 in OVC
04:54 45.2 °F 35.3 °F 30.34 in Calm     68% 0.00 in OVC
04:59 45.3 °F 35.7 °F 30.34 in Calm     69% 0.00 in OVC
05:04 45.2 °F 35.3 °F 30.34 in West 1.2 mph 1.2 mph 68% 0.00 in OVC
05:14 45.2 °F 35.3 °F 30.34 in Calm     68% 0.00 in OVC
05:20 45.2 °F 35.3 °F 30.34 in West 2.0 mph 2.0 mph 68% 0.00 in OVC
05:25 45.2 °F 35.3 °F 30.34 in Calm   3.0 mph 68% 0.00 in OVC
05:30 45.1 °F 34.8 °F 30.34 in Calm   1.0 mph 67% 0.00 in OVC
05:35 45.1 °F 35.2 °F 30.34 in Calm   2.0 mph 68% 0.00 in OVC
05:40 45.1 °F 35.2 °F 30.34 in Calm     68% 0.00 in OVC
05:45 45.1 °F 35.2 °F 30.34 in Calm   1.0 mph 68% 0.00 in OVC
05:50 45.1 °F 34.8 °F 30.34 in WNW 1.0 mph 5.0 mph 67% 0.00 in OVC
05:55 45.0 °F 35.1 °F 30.34 in Calm   1.0 mph 68% 0.00 in OVC
06:00 45.0 °F 35.4 °F 30.34 in Calm   1.0 mph 69% 0.00 in OVC
06:05 45.0 °F 35.4 °F 30.35 in Calm     69% 0.00 in OVC
06:10 45.0 °F 35.1 °F 30.35 in Calm   3.0 mph 68% 0.00 in OVC
06:15 45.0 °F 35.4 °F 30.35 in Calm   2.0 mph 69% 0.00 in OVC
06:20 45.0 °F 35.4 °F 30.35 in Calm   1.0 mph 69% 0.00 in OVC
06:25 45.0 °F 35.4 °F 30.35 in Calm     69% 0.00 in OVC
06:30 45.0 °F 35.4 °F 30.35 in Calm     69% 0.00 in OVC
06:35 45.0 °F 35.4 °F 30.35 in Calm   1.0 mph 69% 0.00 in OVC
06:40 44.9 °F 35.0 °F 30.35 in Calm   2.0 mph 68% 0.00 in OVC
06:45 44.9 °F 35.3 °F 30.35 in Calm   1.0 mph 69% 0.00 in OVC
06:50 44.9 °F 35.3 °F 30.35 in Calm   1.0 mph 69% 0.00 in OVC
06:55 44.9 °F 35.0 °F 30.35 in Calm   1.0 mph 68% 0.00 in OVC
07:00 44.9 °F 35.0 °F 30.35 in Calm   1.0 mph 68% 0.00 in OVC
07:05 44.9 °F 35.3 °F 30.36 in NW 1.2 mph 1.2 mph 69% 0.00 in OVC
07:10 44.8 °F 35.2 °F 30.36 in Calm   1.0 mph 69% 0.00 in OVC
07:15 44.8 °F 35.2 °F 30.36 in WNW 2.3 mph 2.3 mph 69% 0.00 in OVC
07:20 44.8 °F 35.2 °F 30.36 in WNW 1.2 mph 1.2 mph 69% 0.00 in OVC
07:25 44.8 °F 35.2 °F 30.36 in West 2.3 mph 2.3 mph 69% 0.00 in OVC
07:30 44.8 °F 35.6 °F 30.36 in WSW 2.0 mph 2.0 mph 70% 0.00 in OVC
07:35 44.7 °F 35.5 °F 30.36 in NNE 1.0 mph   70% 0.00 in OVC
07:40 44.8 °F 35.6 °F 30.36 in WNW 1.2 mph 1.2 mph 70% 0.00 in OVC
07:45 44.8 °F 35.6 °F 30.36 in Calm     70% 0.00 in OVC
07:50 44.8 °F 35.6 °F 30.36 in WNW 1.2 mph 1.2 mph 70% 0.00 in OVC
07:55 44.8 °F 35.6 °F 30.36 in Calm     70% 0.00 in OVC
08:00 44.9 °F 35.7 °F 30.36 in West 1.2 mph 1.2 mph 70% 0.00 in OVC
08:05 44.9 °F 36.1 °F 30.38 in West 1.2 mph   71% 0.00 in OVC
08:10 45.0 °F 36.2 °F 30.38 in Calm     71% 0.00 in OVC
08:11 45.0 °F 36.5 °F 30.38 in Calm     72% 0.00 in OVC
08:16 45.2 °F 36.7 °F 30.38 in Calm     72% 0.00 in OVC
08:21 45.2 °F 36.4 °F 30.38 in West 1.2 mph 1.2 mph 71% 0.00 in OVC
08:26 45.2 °F 36.7 °F 30.38 in West 1.0 mph   72% 0.00 in OVC
08:31 45.3 °F 36.8 °F 30.38 in Calm     72% 0.00 in OVC
08:36 45.5 °F 37.0 °F 30.38 in West 2.0 mph 2.0 mph 72% 0.00 in OVC
08:41 45.6 °F 36.7 °F 30.38 in Calm   0.2 mph 71% 0.00 in OVC
08:47 45.5 °F 36.6 °F 30.38 in West 1.2 mph 1.2 mph 71% 0.00 in OVC
08:52 45.3 °F 36.8 °F 30.38 in West 2.3 mph 2.3 mph 72% 0.00 in OVC
08:57 45.2 °F 36.7 °F 30.38 in WNW 1.2 mph 1.2 mph 72% 0.00 in OVC
09:02 45.3 °F 36.8 °F 30.37 in WNW 2.3 mph 2.3 mph 72% 0.00 in OVC
09:07 45.4 °F 36.9 °F 30.37 in SSE 2.3 mph 2.3 mph 72% 0.00 in OVC
09:08 45.5 °F 37.3 °F 30.37 in WNW 2.3 mph   73% 0.00 in OVC
09:13 45.6 °F 37.1 °F 30.37 in West 1.2 mph 1.2 mph 72% 0.00 in OVC
09:18 45.6 °F 37.1 °F 30.37 in WNW 1.0 mph   72% 0.00 in OVC
09:23 45.7 °F 37.2 °F 30.37 in WSW 2.3 mph 2.3 mph 72% 0.00 in OVC
09:28 45.7 °F 37.2 °F 30.37 in WNW 4.6 mph 4.6 mph 72% 0.00 in OVC
09:33 45.7 °F 37.5 °F 30.37 in West 1.2 mph 1.2 mph 73% 0.00 in OVC
09:39 45.7 °F 37.2 °F 30.37 in West 2.3 mph 2.3 mph 72% 0.00 in OVC
09:44 45.9 °F 37.4 °F 30.37 in WSW 1.2 mph 1.2 mph 72% 0.00 in OVC
09:49 46.0 °F 37.1 °F 30.37 in WNW 5.8 mph 5.8 mph 71% 0.00 in OVC
09:54 46.0 °F 37.8 °F 30.37 in Calm     73% 0.00 in OVC
09:59 46.3 °F 38.1 °F 30.37 in Calm     73% 0.00 in OVC
10:04 46.4 °F 37.9 °F 30.37 in West 1.2 mph 1.2 mph 72% 0.00 in OVC
10:09 46.3 °F 37.8 °F 30.37 in West 1.2 mph 1.2 mph 72% 0.00 in OVC
10:14 46.4 °F 38.2 °F 30.37 in West 1.2 mph 1.2 mph 73% 0.00 in OVC
10:19 46.4 °F 38.2 °F 30.37 in SSE 1.2 mph 1.2 mph 73% 0.00 in OVC
10:24 46.5 °F 38.0 °F 30.37 in West 1.2 mph 1.2 mph 72% 0.00 in OVC
10:29 46.4 °F 37.9 °F 30.37 in West 1.2 mph 1.2 mph 72% 0.00 in OVC
10:34 46.5 °F 38.3 °F 30.37 in West 1.2 mph 1.2 mph 73% 0.00 in OVC
10:39 46.5 °F 38.3 °F 30.37 in Calm     73% 0.00 in OVC
10:44 46.4 °F 38.2 °F 30.37 in Calm     73% 0.00 in OVC
10:49 46.5 °F 38.3 °F 30.37 in Calm     73% 0.00 in OVC
10:54 46.5 °F 38.3 °F 30.37 in Calm     73% 0.00 in OVC
10:59 46.5 °F 39.0 °F 30.37 in Calm     75% 0.00 in OVC
11:04 46.7 °F 38.9 °F 30.37 in Calm     74% 0.00 in OVC
11:10 46.6 °F 38.8 °F 30.37 in Calm     74% 0.00 in OVC
11:15 46.5 °F 38.7 °F 30.37 in Calm   1.0 mph 74% 0.00 in OVC
11:20 46.5 °F 38.3 °F 30.37 in Calm   1.0 mph 73% 0.00 in OVC
11:25 46.5 °F 39.0 °F 30.37 in Calm     75% 0.00 in OVC
11:30 46.6 °F 39.8 °F 30.37 in Calm     77% 0.00 in OVC
11:35 46.4 °F 39.6 °F 30.37 in Calm     77% 0.00 in -RA
11:40 46.2 °F 40.4 °F 30.37 in Calm     80% 0.00 in -RA
11:45 46.0 °F 40.5 °F 30.37 in Calm     81% 0.00 in -RA
11:50 45.7 °F 40.5 °F 30.37 in Calm     82% 0.01 in -RA
11:55 45.2 °F 40.7 °F 30.37 in Calm     84% 0.01 in -RA
12:00 44.9 °F 40.4 °F 30.37 in Calm     84% 0.00 in -RA
12:05 44.5 °F 40.6 °F 30.37 in Calm     86% 0.00 in -RA
12:10 44.4 °F 40.8 °F 30.37 in Calm     87% 0.00 in -RA
12:15 44.4 °F 41.1 °F 30.37 in Calm     88% 0.00 in -RA
12:20 44.3 °F 41.0 °F 30.37 in Calm     88% 0.01 in -RA
12:25 44.3 °F 41.0 °F 30.37 in Calm   1.0 mph 88% 0.00 in -RA
12:28 44.3 °F 41.3 °F 30.37 in East 1.2 mph   89% 0.05 in -RA
12:33 44.2 °F 41.2 °F 30.36 in NNW 1.2 mph   89% 0.05 in -RA
12:39 44.1 °F 41.1 °F 30.36 in Calm     89% 0.06 in -RA
12:44 44.1 °F 41.1 °F 30.36 in Calm     89% 0.07 in -RA
12:49 44.0 °F 41.3 °F 30.36 in Calm     90% 0.09 in -RA
12:54 43.9 °F 41.2 °F 30.36 in Calm     90% 0.10 in -RA
12:59 44.1 °F 41.4 °F 30.36 in Calm     90% 0.10 in -RA
13:04 44.1 °F 41.4 °F 30.34 in Calm     90% 0.10 in -RA
13:09 44.1 °F 41.6 °F 30.34 in Calm     91% 0.09 in -RA
13:14 44.3 °F 41.8 °F 30.34 in Calm     91% 0.10 in -RA
13:19 44.6 °F 42.1 °F 30.34 in Calm     91% 0.09 in -RA
13:24 44.8 °F 42.3 °F 30.34 in Calm     91% 0.08 in -RA
13:29 44.8 °F 42.3 °F 30.34 in Calm     91% 0.07 in -RA
13:34 45.0 °F 42.5 °F 30.34 in Calm     91% 0.07 in -RA
13:39 45.0 °F 42.5 °F 30.34 in Calm     91% 0.06 in -RA
13:44 45.1 °F 42.6 °F 30.34 in Calm     91% 0.05 in -RA
13:49 45.2 °F 42.7 °F 30.34 in West 1.2 mph   91% 0.03 in -RA
13:54 45.4 °F 43.2 °F 30.32 in Calm     92% 0.01 in -DZ
13:59 45.5 °F 43.0 °F 30.32 in Calm     91% 0.01 in -DZ
14:04 45.4 °F 42.9 °F 30.32 in WNW 1.2 mph   91% 0.01 in -DZ
14:09 45.5 °F 43.0 °F 30.32 in Calm     91% 0.01 in -DZ
14:15 45.8 °F 43.6 °F 30.32 in Calm   1.0 mph 92% 0.00 in -DZ
14:20 46.0 °F 43.8 °F 30.32 in Calm     92% 0.00 in -DZ
14:25 45.9 °F 43.4 °F 30.31 in Calm   1.0 mph 91% 0.00 in OVC
14:30 45.8 °F 43.3 °F 30.31 in Calm   0.1 mph 91% 0.00 in OVC
14:35 45.8 °F 43.3 °F 30.31 in Calm   1.0 mph 91% 0.00 in OVC
14:40 45.8 °F 43.3 °F 30.31 in Calm   1.0 mph 91% 0.00 in OVC
14:45 45.9 °F 43.4 °F 30.31 in Calm   1.0 mph 91% 0.00 in OVC
14:50 46.0 °F 43.5 °F 30.31 in Calm   1.0 mph 91% 0.00 in OVC
14:55 46.1 °F 43.6 °F 30.31 in Calm   1.0 mph 91% 0.00 in OVC
15:00 46.1 °F 43.7 °F 30.31 in Calm   2.0 mph 91% 0.00 in OVC
15:05 46.2 °F 43.7 °F 30.30 in Calm     91% 0.00 in OVC
15:10 46.2 °F 43.7 °F 30.30 in Calm   1.0 mph 91% 0.00 in OVC
15:15 46.1 °F 43.6 °F 30.30 in Calm     91% 0.00 in OVC
15:20 46.2 °F 43.7 °F 30.30 in Calm     91% 0.00 in OVC
15:25 46.3 °F 43.8 °F 30.30 in Calm     91% 0.00 in OVC
15:30 46.4 °F 43.9 °F 30.30 in Calm     91% 0.00 in OVC
15:35 46.5 °F 44.0 °F 30.30 in Calm     91% 0.00 in OVC
15:38 46.5 °F 44.0 °F 30.30 in Calm     91% 0.00 in OVC
15:43 46.7 °F 44.2 °F 30.30 in Calm     91% 0.00 in OVC
15:48 46.6 °F 43.8 °F 30.30 in Calm     90% 0.00 in OVC
15:53 46.7 °F 43.9 °F 30.30 in Calm     90% 0.00 in OVC
15:58 47.0 °F 44.5 °F 30.30 in Calm     91% 0.00 in OVC
16:03 47.1 °F 44.6 °F 30.31 in Calm     91% 0.00 in OVC
16:09 47.1 °F 44.3 °F 30.31 in Calm     90% 0.00 in OVC
16:14 47.1 °F 44.3 °F 30.31 in Calm     90% 0.00 in OVC
16:19 47.1 °F 44.3 °F 30.31 in Calm     90% 0.00 in OVC
16:23 47.2 °F 44.4 °F 30.31 in Calm     90% 0.00 in OVC
16:24 47.2 °F 44.4 °F 30.31 in WNW 1.2 mph 1.2 mph 90% 0.00 in OVC
16:29 47.2 °F 44.4 °F 30.31 in WNW 1.2 mph   90% 0.00 in OVC
16:34 47.3 °F 44.5 °F 30.31 in Calm     90% 0.00 in OVC
16:39 47.3 °F 44.5 °F 30.31 in Calm     90% 0.00 in OVC
16:44 47.2 °F 44.4 °F 30.31 in Calm     90% 0.00 in OVC
16:49 47.2 °F 44.4 °F 30.31 in Calm     90% 0.00 in OVC
16:54 47.2 °F 44.4 °F 30.31 in Calm     90% 0.00 in OVC
16:59 47.2 °F 44.4 °F 30.31 in Calm     90% 0.00 in OVC
17:04 47.1 °F 44.3 °F 30.29 in Calm     90% 0.00 in OVC
17:09 47.1 °F 44.3 °F 30.29 in Calm     90% 0.00 in OVC
17:14 47.1 °F 44.3 °F 30.29 in Calm     90% 0.00 in OVC
17:19 47.1 °F 44.3 °F 30.29 in Calm     90% 0.00 in OVC
17:24 47.1 °F 44.3 °F 30.29 in Calm     90% 0.00 in OVC
17:29 47.1 °F 44.3 °F 30.29 in Calm     90% 0.00 in OVC
17:34 47.0 °F 44.2 °F 30.29 in Calm     90% 0.00 in OVC
17:39 47.0 °F 44.2 °F 30.29 in Calm     90% 0.00 in OVC
17:45 47.0 °F 44.2 °F 30.30 in Calm     90% 0.00 in OVC
17:50 47.0 °F 44.2 °F 30.30 in Calm     90% 0.00 in OVC
17:55 47.0 °F 44.5 °F 30.30 in Calm     91% 0.00 in OVC
18:00 47.0 °F 44.6 °F 30.30 in Calm     91% 0.00 in OVC
18:05 47.0 °F 44.5 °F 30.31 in West 1.0 mph   91% 0.00 in OVC
18:10 46.9 °F 44.4 °F 30.31 in Calm   1.0 mph 91% 0.00 in OVC
18:15 46.9 °F 44.4 °F 30.31 in Calm     91% 0.00 in OVC
18:20 46.8 °F 44.3 °F 30.31 in Calm     91% 0.00 in OVC
18:25 46.8 °F 44.3 °F 30.31 in Calm     91% 0.00 in OVC
18:30 46.8 °F 44.3 °F 30.31 in Calm     91% 0.00 in OVC
18:35 46.8 °F 44.3 °F 30.32 in Calm     91% 0.00 in OVC
18:40 46.8 °F 44.3 °F 30.32 in Calm     91% 0.00 in OVC
18:45 46.9 °F 44.4 °F 30.32 in Calm     91% 0.00 in OVC
18:50 46.9 °F 44.4 °F 30.32 in Calm     91% 0.00 in OVC
18:55 46.9 °F 44.4 °F 30.32 in Calm     91% 0.00 in OVC
19:00 46.9 °F 44.4 °F 30.32 in Calm     91% 0.00 in OVC
19:05 46.9 °F 44.4 °F 30.33 in Calm     91% 0.00 in OVC
19:10 46.9 °F 44.4 °F 30.33 in Calm     91% 0.00 in OVC
19:15 46.9 °F 44.7 °F 30.33 in Calm     92% 0.00 in OVC
19:20 46.9 °F 44.7 °F 30.33 in Calm     92% 0.00 in OVC
19:25 46.9 °F 44.4 °F 30.33 in Calm     91% 0.00 in OVC
19:30 46.9 °F 44.7 °F 30.33 in Calm     92% 0.00 in OVC
19:35 46.9 °F 44.7 °F 30.33 in Calm     92% 0.00 in OVC
19:40 46.9 °F 44.7 °F 30.33 in Calm     92% 0.00 in OVC
19:45 46.9 °F 44.7 °F 30.33 in Calm     92% 0.00 in OVC
19:50 47.0 °F 44.8 °F 30.33 in Calm     92% 0.00 in OVC
19:55 47.0 °F 44.8 °F 30.33 in Calm     92% 0.00 in OVC
20:00 47.0 °F 44.8 °F 30.33 in Calm     92% 0.00 in OVC
20:05 47.0 °F 44.8 °F 30.33 in Calm     92% 0.00 in OVC
20:10 47.0 °F 44.8 °F 30.33 in Calm     92% 0.00 in OVC
20:15 47.0 °F 44.8 °F 30.33 in Calm     92% 0.00 in OVC
20:20 47.1 °F 44.9 °F 30.33 in Calm     92% 0.00 in OVC
20:25 47.1 °F 44.9 °F 30.33 in Calm     92% 0.00 in OVC
20:30 47.1 °F 44.9 °F 30.33 in Calm     92% 0.00 in OVC
20:35 47.1 °F 44.9 °F 30.33 in Calm     92% 0.00 in OVC
20:40 47.1 °F 44.9 °F 30.33 in Calm     92% 0.00 in OVC
20:45 47.1 °F 44.9 °F 30.33 in Calm     92% 0.00 in OVC
20:51 47.1 °F 44.9 °F 30.33 in Calm     92% 0.00 in OVC
20:56 47.1 °F 44.9 °F 30.33 in Calm     92% 0.00 in OVC
21:01 47.2 °F 45.0 °F 30.33 in Calm     92% 0.00 in OVC
21:06 47.2 °F 45.0 °F 30.33 in Calm     92% 0.00 in OVC
21:11 47.2 °F 45.0 °F 30.33 in Calm     92% 0.00 in OVC
21:16 47.1 °F 44.9 °F 30.33 in Calm     92% 0.00 in OVC
21:21 47.1 °F 44.9 °F 30.33 in Calm     92% 0.00 in OVC
21:26 47.2 °F 45.0 °F 30.33 in Calm     92% 0.00 in OVC
21:31 47.2 °F 45.0 °F 30.33 in Calm     92% 0.00 in OVC
21:36 47.2 °F 45.0 °F 30.33 in Calm     92% 0.00 in OVC
21:41 47.2 °F 45.0 °F 30.33 in Calm     92% 0.00 in RA
21:46 47.2 °F 45.0 °F 30.33 in Calm     92% 0.00 in OVC
21:51 47.2 °F 45.0 °F 30.33 in Calm     92% 0.00 in OVC
21:56 47.2 °F 45.0 °F 30.33 in Calm     92% 0.00 in OVC
22:01 47.3 °F 45.1 °F 30.33 in Calm     92% 0.00 in OVC
22:06 47.3 °F 45.1 °F 30.33 in Calm     92% 0.00 in OVC
22:17 47.3 °F 45.1 °F 30.33 in Calm     92% 0.00 in OVC
22:21 47.2 °F 45.0 °F 30.33 in Calm     92% 0.00 in OVC
22:23 47.3 °F 45.1 °F 30.33 in Calm     92% 0.00 in OVC
22:28 47.3 °F 45.1 °F 30.33 in Calm     92% 0.00 in OVC
22:29 47.3 °F 45.1 °F 30.33 in Calm     92% 0.00 in OVC
22:34 47.3 °F 45.1 °F 30.33 in Calm     92% 0.00 in OVC
22:39 47.3 °F 45.1 °F 30.33 in Calm     92% 0.00 in OVC
22:44 47.3 °F 45.1 °F 30.33 in Calm     92% 0.00 in OVC
22:49 47.3 °F 45.1 °F 30.33 in Calm     92% 0.00 in OVC
22:54 47.3 °F 45.1 °F 30.33 in Calm     92% 0.00 in OVC
22:59 47.3 °F 45.1 °F 30.33 in Calm     92% 0.00 in OVC
23:04 47.3 °F 45.1 °F 30.33 in Calm     92% 0.00 in OVC
23:09 47.3 °F 45.1 °F 30.33 in Calm     92% 0.00 in OVC
23:14 47.3 °F 45.1 °F 30.33 in Calm     92% 0.00 in OVC
23:19 47.2 °F 45.0 °F 30.33 in Calm     92% 0.00 in OVC
23:24 47.1 °F 44.9 °F 30.33 in Calm     92% 0.00 in OVC
23:30 47.0 °F 44.8 °F 30.33 in Calm     92% 0.00 in OVC
23:35 46.9 °F 44.7 °F 30.33 in Calm     92% 0.00 in OVC
23:45 46.6 °F 44.4 °F 30.33 in Calm     92% 0.00 in OVC
23:50 46.4 °F 44.2 °F 30.33 in Calm     92% 0.00 in OVC
23:55 46.3 °F 44.1 °F 30.33 in Calm     92% 0.00 in OVC
Piedmont Bend
Compliments of Weather Underground - 4 mb